sensor_id;sensor_type;location;lat;lon;timestamp;temperature;humidity
18729;DHT22;9493;51.884;5.188;2022-11-15T00:02:20;7.20;99.90
18729;DHT22;9493;51.884;5.188;2022-11-15T00:04:48;7.30;99.90
18729;DHT22;9493;51.884;5.188;2022-11-15T00:07:15;7.30;99.90
18729;DHT22;9493;51.884;5.188;2022-11-15T00:09:42;7.30;99.90
18729;DHT22;9493;51.884;5.188;2022-11-15T00:12:08;7.50;99.90
18729;DHT22;9493;51.884;5.188;2022-11-15T00:14:35;7.30;99.90
18729;DHT22;9493;51.884;5.188;2022-11-15T00:17:02;7.30;99.90
18729;DHT22;9493;51.884;5.188;2022-11-15T00:19:29;7.30;99.90
18729;DHT22;9493;51.884;5.188;2022-11-15T00:21:57;7.30;99.90
18729;DHT22;9493;51.884;5.188;2022-11-15T00:24:24;7.30;99.90
18729;DHT22;9493;51.884;5.188;2022-11-15T00:26:50;7.40;99.90
18729;DHT22;9493;51.884;5.188;2022-11-15T00:29:17;7.40;99.90
18729;DHT22;9493;51.884;5.188;2022-11-15T00:31:44;7.40;99.90
18729;DHT22;9493;51.884;5.188;2022-11-15T00:34:11;7.40;99.90
18729;DHT22;9493;51.884;5.188;2022-11-15T00:36:37;7.40;99.90
18729;DHT22;9493;51.884;5.188;2022-11-15T00:39:06;7.50;99.90
18729;DHT22;9493;51.884;5.188;2022-11-15T00:41:32;7.50;99.90
18729;DHT22;9493;51.884;5.188;2022-11-15T00:43:59;7.50;99.90
18729;DHT22;9493;51.884;5.188;2022-11-15T00:46:26;7.50;99.90
18729;DHT22;9493;51.884;5.188;2022-11-15T00:48:52;7.50;99.90
18729;DHT22;9493;51.884;5.188;2022-11-15T00:51:19;7.60;99.90
18729;DHT22;9493;51.884;5.188;2022-11-15T00:53:46;7.60;99.90
18729;DHT22;9493;51.884;5.188;2022-11-15T00:56:14;7.60;99.90
18729;DHT22;9493;51.884;5.188;2022-11-15T00:58:41;7.60;99.90
18729;DHT22;9493;51.884;5.188;2022-11-15T01:01:10;7.60;99.90
18729;DHT22;9493;51.884;5.188;2022-11-15T01:03:38;7.70;99.90
18729;DHT22;9493;51.884;5.188;2022-11-15T01:06:06;7.70;99.90
18729;DHT22;9493;51.884;5.188;2022-11-15T01:08:33;7.70;99.90
18729;DHT22;9493;51.884;5.188;2022-11-15T01:11:01;7.70;99.90
18729;DHT22;9493;51.884;5.188;2022-11-15T01:13:31;7.80;99.90
18729;DHT22;9493;51.884;5.188;2022-11-15T01:15:58;7.80;99.90
18729;DHT22;9493;51.884;5.188;2022-11-15T01:18:25;7.80;99.90
18729;DHT22;9493;51.884;5.188;2022-11-15T01:20:51;7.90;99.90
18729;DHT22;9493;51.884;5.188;2022-11-15T01:23:18;8.10;99.90
18729;DHT22;9493;51.884;5.188;2022-11-15T01:25:45;8.00;99.90
18729;DHT22;9493;51.884;5.188;2022-11-15T01:28:12;8.00;99.90
18729;DHT22;9493;51.884;5.188;2022-11-15T01:30:40;8.10;99.90
18729;DHT22;9493;51.884;5.188;2022-11-15T01:33:06;8.10;99.90
18729;DHT22;9493;51.884;5.188;2022-11-15T01:35:33;8.20;99.90
18729;DHT22;9493;51.884;5.188;2022-11-15T01:38:04;8.20;99.90
18729;DHT22;9493;51.884;5.188;2022-11-15T01:40:31;8.10;99.90
18729;DHT22;9493;51.884;5.188;2022-11-15T01:42:57;8.30;99.90
18729;DHT22;9493;51.884;5.188;2022-11-15T01:45:24;8.40;99.90
18729;DHT22;9493;51.884;5.188;2022-11-15T01:47:54;8.40;99.90
18729;DHT22;9493;51.884;5.188;2022-11-15T01:50:24;8.50;99.90
18729;DHT22;9493;51.884;5.188;2022-11-15T01:52:52;8.50;99.90
18729;DHT22;9493;51.884;5.188;2022-11-15T01:55:21;8.50;99.90
18729;DHT22;9493;51.884;5.188;2022-11-15T01:57:51;8.60;99.90
18729;DHT22;9493;51.884;5.188;2022-11-15T02:00:19;8.60;99.90
18729;DHT22;9493;51.884;5.188;2022-11-15T02:02:47;8.60;99.90
18729;DHT22;9493;51.884;5.188;2022-11-15T02:05:15;8.70;99.90
18729;DHT22;9493;51.884;5.188;2022-11-15T02:07:42;8.70;99.90
18729;DHT22;9493;51.884;5.188;2022-11-15T02:10:11;8.70;99.90
18729;DHT22;9493;51.884;5.188;2022-11-15T02:12:38;8.70;99.90
18729;DHT22;9493;51.884;5.188;2022-11-15T02:15:06;8.80;99.90
18729;DHT22;9493;51.884;5.188;2022-11-15T02:17:51;8.80;99.90
18729;DHT22;9493;51.884;5.188;2022-11-15T02:20:46;8.80;99.90
18729;DHT22;9493;51.884;5.188;2022-11-15T02:29:13;8.90;99.90
18729;DHT22;9493;51.884;5.188;2022-11-15T02:31:51;8.90;99.90
18729;DHT22;9493;51.884;5.188;2022-11-15T02:34:25;9.00;99.90
18729;DHT22;9493;51.884;5.188;2022-11-15T02:37:02;9.00;99.90
18729;DHT22;9493;51.884;5.188;2022-11-15T02:39:34;9.10;99.90
18729;DHT22;9493;51.884;5.188;2022-11-15T02:42:08;9.10;99.90
18729;DHT22;9493;51.884;5.188;2022-11-15T02:44:57;9.10;99.90
18729;DHT22;9493;51.884;5.188;2022-11-15T02:47:30;9.10;99.90
18729;DHT22;9493;51.884;5.188;2022-11-15T02:50:03;9.20;99.90
18729;DHT22;9493;51.884;5.188;2022-11-15T02:52:32;9.20;99.90
18729;DHT22;9493;51.884;5.188;2022-11-15T02:55:00;9.30;99.90
18729;DHT22;9493;51.884;5.188;2022-11-15T02:57:38;9.30;99.90
18729;DHT22;9493;51.884;5.188;2022-11-15T03:00:08;9.40;99.90
18729;DHT22;9493;51.884;5.188;2022-11-15T03:02:42;9.40;99.90
18729;DHT22;9493;51.884;5.188;2022-11-15T03:05:19;9.50;99.90
18729;DHT22;9493;51.884;5.188;2022-11-15T03:07:54;9.50;99.90
18729;DHT22;9493;51.884;5.188;2022-11-15T03:10:28;9.50;99.90
18729;DHT22;9493;51.884;5.188;2022-11-15T03:13:02;9.60;99.90
18729;DHT22;9493;51.884;5.188;2022-11-15T03:15:34;9.70;99.90
18729;DHT22;9493;51.884;5.188;2022-11-15T03:18:12;9.60;99.90
18729;DHT22;9493;51.884;5.188;2022-11-15T03:20:39;9.70;99.90
18729;DHT22;9493;51.884;5.188;2022-11-15T03:23:08;9.70;99.90
18729;DHT22;9493;51.884;5.188;2022-11-15T03:25:40;9.80;99.90
18729;DHT22;9493;51.884;5.188;2022-11-15T03:28:10;9.90;99.90
18729;DHT22;9493;51.884;5.188;2022-11-15T03:30:40;9.80;99.90
18729;DHT22;9493;51.884;5.188;2022-11-15T03:33:10;9.90;99.90
18729;DHT22;9493;51.884;5.188;2022-11-15T03:35:40;9.90;99.90
18729;DHT22;9493;51.884;5.188;2022-11-15T03:38:13;9.90;99.90
18729;DHT22;9493;51.884;5.188;2022-11-15T03:40:45;9.90;99.90
18729;DHT22;9493;51.884;5.188;2022-11-15T03:43:19;10.00;99.90
18729;DHT22;9493;51.884;5.188;2022-11-15T03:45:53;9.90;99.90
18729;DHT22;9493;51.884;5.188;2022-11-15T03:48:25;10.00;99.90
18729;DHT22;9493;51.884;5.188;2022-11-15T03:50:53;9.90;99.90
18729;DHT22;9493;51.884;5.188;2022-11-15T03:53:20;10.00;99.90
18729;DHT22;9493;51.884;5.188;2022-11-15T03:55:47;10.00;99.90
18729;DHT22;9493;51.884;5.188;2022-11-15T03:58:14;10.00;99.90
18729;DHT22;9493;51.884;5.188;2022-11-15T04:00:40;10.00;99.90
18729;DHT22;9493;51.884;5.188;2022-11-15T04:03:07;10.00;99.90
18729;DHT22;9493;51.884;5.188;2022-11-15T04:05:35;10.00;99.90
18729;DHT22;9493;51.884;5.188;2022-11-15T04:08:02;9.90;99.90
18729;DHT22;9493;51.884;5.188;2022-11-15T04:10:29;10.00;99.90
18729;DHT22;9493;51.884;5.188;2022-11-15T04:12:56;10.00;99.90
18729;DHT22;9493;51.884;5.188;2022-11-15T04:15:23;10.00;99.90
18729;DHT22;9493;51.884;5.188;2022-11-15T04:17:52;10.00;99.90
18729;DHT22;9493;51.884;5.188;2022-11-15T04:20:21;10.00;99.90
18729;DHT22;9493;51.884;5.188;2022-11-15T04:23:10;10.00;99.90
18729;DHT22;9493;51.884;5.188;2022-11-15T04:25:56;10.00;99.90
18729;DHT22;9493;51.884;5.188;2022-11-15T04:28:24;10.10;99.90
18729;DHT22;9493;51.884;5.188;2022-11-15T04:30:51;10.10;99.90
18729;DHT22;9493;51.884;5.188;2022-11-15T04:33:18;10.10;99.90
18729;DHT22;9493;51.884;5.188;2022-11-15T04:35:45;10.20;99.90
18729;DHT22;9493;51.884;5.188;2022-11-15T04:38:33;10.20;99.90
18729;DHT22;9493;51.884;5.188;2022-11-15T04:40:59;10.20;99.90
18729;DHT22;9493;51.884;5.188;2022-11-15T04:43:27;10.30;99.90
18729;DHT22;9493;51.884;5.188;2022-11-15T04:45:54;10.40;99.90
18729;DHT22;9493;51.884;5.188;2022-11-15T04:48:20;10.40;99.90
18729;DHT22;9493;51.884;5.188;2022-11-15T04:50:48;10.40;99.90
18729;DHT22;9493;51.884;5.188;2022-11-15T04:53:14;10.50;99.90
18729;DHT22;9493;51.884;5.188;2022-11-15T04:55:45;10.50;99.90
18729;DHT22;9493;51.884;5.188;2022-11-15T04:58:12;10.50;99.90
18729;DHT22;9493;51.884;5.188;2022-11-15T05:00:39;10.50;99.90
18729;DHT22;9493;51.884;5.188;2022-11-15T05:03:06;10.50;99.90
18729;DHT22;9493;51.884;5.188;2022-11-15T05:05:50;10.50;99.90
18729;DHT22;9493;51.884;5.188;2022-11-15T05:08:17;10.50;99.90
18729;DHT22;9493;51.884;5.188;2022-11-15T05:10:45;10.50;99.90
18729;DHT22;9493;51.884;5.188;2022-11-15T05:13:12;10.50;99.90
18729;DHT22;9493;51.884;5.188;2022-11-15T05:15:39;10.50;99.90
18729;DHT22;9493;51.884;5.188;2022-11-15T05:18:05;10.50;99.90
18729;DHT22;9493;51.884;5.188;2022-11-15T05:20:32;10.50;99.90
18729;DHT22;9493;51.884;5.188;2022-11-15T05:22:59;10.50;99.90
18729;DHT22;9493;51.884;5.188;2022-11-15T05:25:26;10.50;99.90
18729;DHT22;9493;51.884;5.188;2022-11-15T05:27:54;10.50;99.90
18729;DHT22;9493;51.884;5.188;2022-11-15T05:30:21;10.60;99.90
18729;DHT22;9493;51.884;5.188;2022-11-15T05:32:48;10.60;99.90
18729;DHT22;9493;51.884;5.188;2022-11-15T05:35:20;10.60;99.90
18729;DHT22;9493;51.884;5.188;2022-11-15T05:37:48;10.60;99.90
18729;DHT22;9493;51.884;5.188;2022-11-15T05:40:15;10.70;99.90
18729;DHT22;9493;51.884;5.188;2022-11-15T05:42:42;10.60;99.90
18729;DHT22;9493;51.884;5.188;2022-11-15T05:45:11;10.60;99.90
18729;DHT22;9493;51.884;5.188;2022-11-15T05:47:39;10.60;99.90
18729;DHT22;9493;51.884;5.188;2022-11-15T05:50:07;10.70;99.90
18729;DHT22;9493;51.884;5.188;2022-11-15T05:52:37;10.70;99.90
18729;DHT22;9493;51.884;5.188;2022-11-15T05:55:05;10.60;99.90
18729;DHT22;9493;51.884;5.188;2022-11-15T05:57:33;10.70;99.90
18729;DHT22;9493;51.884;5.188;2022-11-15T06:00:00;10.70;99.90
18729;DHT22;9493;51.884;5.188;2022-11-15T06:02:28;11.00;99.90
18729;DHT22;9493;51.884;5.188;2022-11-15T06:04:55;10.90;99.90
18729;DHT22;9493;51.884;5.188;2022-11-15T06:07:21;10.70;99.90
18729;DHT22;9493;51.884;5.188;2022-11-15T06:09:48;10.70;99.90
18729;DHT22;9493;51.884;5.188;2022-11-15T06:12:15;10.70;99.90
18729;DHT22;9493;51.884;5.188;2022-11-15T06:14:41;10.70;99.90
18729;DHT22;9493;51.884;5.188;2022-11-15T06:17:08;10.70;99.90
18729;DHT22;9493;51.884;5.188;2022-11-15T06:19:36;10.70;99.90
18729;DHT22;9493;51.884;5.188;2022-11-15T06:22:03;10.90;99.90
18729;DHT22;9493;51.884;5.188;2022-11-15T06:24:30;10.70;99.90
18729;DHT22;9493;51.884;5.188;2022-11-15T06:26:56;10.80;99.90
18729;DHT22;9493;51.884;5.188;2022-11-15T06:29:24;10.80;99.90
18729;DHT22;9493;51.884;5.188;2022-11-15T06:31:51;10.80;99.90
18729;DHT22;9493;51.884;5.188;2022-11-15T06:34:18;10.80;99.90
18729;DHT22;9493;51.884;5.188;2022-11-15T06:36:46;10.70;99.90
18729;DHT22;9493;51.884;5.188;2022-11-15T06:39:13;10.70;99.90
18729;DHT22;9493;51.884;5.188;2022-11-15T06:41:40;10.80;99.90
18729;DHT22;9493;51.884;5.188;2022-11-15T06:44:06;10.80;99.90
18729;DHT22;9493;51.884;5.188;2022-11-15T06:46:33;10.80;99.90
18729;DHT22;9493;51.884;5.188;2022-11-15T06:49:00;10.80;99.90
18729;DHT22;9493;51.884;5.188;2022-11-15T06:51:26;10.80;99.90
18729;DHT22;9493;51.884;5.188;2022-11-15T06:53:54;10.80;99.90
18729;DHT22;9493;51.884;5.188;2022-11-15T06:56:21;10.80;99.90
18729;DHT22;9493;51.884;5.188;2022-11-15T06:58:48;10.80;99.90
18729;DHT22;9493;51.884;5.188;2022-11-15T07:01:15;10.80;99.90
18729;DHT22;9493;51.884;5.188;2022-11-15T07:03:42;10.80;99.90
18729;DHT22;9493;51.884;5.188;2022-11-15T07:06:09;10.70;99.90
18729;DHT22;9493;51.884;5.188;2022-11-15T07:08:36;10.70;99.90
18729;DHT22;9493;51.884;5.188;2022-11-15T07:11:06;10.70;99.90
18729;DHT22;9493;51.884;5.188;2022-11-15T07:13:33;10.80;99.90
18729;DHT22;9493;51.884;5.188;2022-11-15T07:16:02;10.70;99.90
18729;DHT22;9493;51.884;5.188;2022-11-15T07:18:29;10.70;99.90
18729;DHT22;9493;51.884;5.188;2022-11-15T07:21:00;10.70;99.90
18729;DHT22;9493;51.884;5.188;2022-11-15T07:23:27;10.70;99.90
18729;DHT22;9493;51.884;5.188;2022-11-15T07:25:55;10.70;99.90
18729;DHT22;9493;51.884;5.188;2022-11-15T07:28:23;10.70;99.90
18729;DHT22;9493;51.884;5.188;2022-11-15T07:30:50;10.70;99.90
18729;DHT22;9493;51.884;5.188;2022-11-15T07:33:17;10.70;99.90
18729;DHT22;9493;51.884;5.188;2022-11-15T07:35:43;10.70;99.90
18729;DHT22;9493;51.884;5.188;2022-11-15T07:38:12;10.70;99.90
18729;DHT22;9493;51.884;5.188;2022-11-15T07:40:40;10.70;99.90
18729;DHT22;9493;51.884;5.188;2022-11-15T07:43:08;10.70;99.90
18729;DHT22;9493;51.884;5.188;2022-11-15T07:45:42;10.70;99.90
18729;DHT22;9493;51.884;5.188;2022-11-15T07:48:09;10.50;99.90
18729;DHT22;9493;51.884;5.188;2022-11-15T07:50:36;10.70;99.90
18729;DHT22;9493;51.884;5.188;2022-11-15T07:53:02;10.60;99.90
18729;DHT22;9493;51.884;5.188;2022-11-15T07:55:29;10.60;99.90
18729;DHT22;9493;51.884;5.188;2022-11-15T07:58:00;10.60;99.90
18729;DHT22;9493;51.884;5.188;2022-11-15T08:00:27;10.70;99.90
18729;DHT22;9493;51.884;5.188;2022-11-15T08:03:03;10.70;99.90
18729;DHT22;9493;51.884;5.188;2022-11-15T08:05:30;10.70;99.90
18729;DHT22;9493;51.884;5.188;2022-11-15T08:07:57;10.70;99.90
18729;DHT22;9493;51.884;5.188;2022-11-15T08:10:24;10.70;99.90
18729;DHT22;9493;51.884;5.188;2022-11-15T08:12:57;10.70;99.90
18729;DHT22;9493;51.884;5.188;2022-11-15T08:15:25;10.80;99.90
18729;DHT22;9493;51.884;5.188;2022-11-15T08:17:55;10.80;99.90
18729;DHT22;9493;51.884;5.188;2022-11-15T08:20:25;10.80;99.90
18729;DHT22;9493;51.884;5.188;2022-11-15T08:22:54;10.80;99.90
18729;DHT22;9493;51.884;5.188;2022-11-15T08:25:20;10.80;99.90
18729;DHT22;9493;51.884;5.188;2022-11-15T08:27:47;10.90;99.90
18729;DHT22;9493;51.884;5.188;2022-11-15T08:30:14;11.00;99.90
18729;DHT22;9493;51.884;5.188;2022-11-15T08:32:41;10.90;99.90
18729;DHT22;9493;51.884;5.188;2022-11-15T08:35:08;11.00;99.90
18729;DHT22;9493;51.884;5.188;2022-11-15T08:37:37;11.00;99.90
18729;DHT22;9493;51.884;5.188;2022-11-15T08:40:05;11.10;99.90
18729;DHT22;9493;51.884;5.188;2022-11-15T08:42:32;11.10;99.90
18729;DHT22;9493;51.884;5.188;2022-11-15T08:44:59;11.20;99.90
18729;DHT22;9493;51.884;5.188;2022-11-15T08:47:25;11.20;99.90
18729;DHT22;9493;51.884;5.188;2022-11-15T08:49:52;11.30;99.90
18729;DHT22;9493;51.884;5.188;2022-11-15T08:52:19;11.30;99.90
18729;DHT22;9493;51.884;5.188;2022-11-15T08:54:47;11.90;99.90
18729;DHT22;9493;51.884;5.188;2022-11-15T08:57:14;12.10;99.90
18729;DHT22;9493;51.884;5.188;2022-11-15T08:59:41;11.90;99.90
18729;DHT22;9493;51.884;5.188;2022-11-15T09:02:11;11.90;99.90
18729;DHT22;9493;51.884;5.188;2022-11-15T09:04:39;12.00;99.90
18729;DHT22;9493;51.884;5.188;2022-11-15T09:07:06;12.00;99.90
18729;DHT22;9493;51.884;5.188;2022-11-15T09:09:33;11.90;99.90
18729;DHT22;9493;51.884;5.188;2022-11-15T09:12:01;11.90;99.90
18729;DHT22;9493;51.884;5.188;2022-11-15T09:14:28;11.90;99.90
18729;DHT22;9493;51.884;5.188;2022-11-15T09:16:54;11.80;99.90
18729;DHT22;9493;51.884;5.188;2022-11-15T09:19:21;11.90;99.90
18729;DHT22;9493;51.884;5.188;2022-11-15T09:21:48;11.90;99.90
18729;DHT22;9493;51.884;5.188;2022-11-15T09:24:15;11.90;99.90
18729;DHT22;9493;51.884;5.188;2022-11-15T09:26:43;12.10;99.90
18729;DHT22;9493;51.884;5.188;2022-11-15T09:29:11;12.20;99.90
18729;DHT22;9493;51.884;5.188;2022-11-15T09:31:38;12.40;99.90
18729;DHT22;9493;51.884;5.188;2022-11-15T09:34:05;12.40;99.90
18729;DHT22;9493;51.884;5.188;2022-11-15T09:36:32;12.50;99.90
18729;DHT22;9493;51.884;5.188;2022-11-15T09:38:59;12.50;99.90
18729;DHT22;9493;51.884;5.188;2022-11-15T09:41:38;12.20;99.90
18729;DHT22;9493;51.884;5.188;2022-11-15T09:44:24;12.10;99.90
18729;DHT22;9493;51.884;5.188;2022-11-15T09:46:59;12.20;99.90
18729;DHT22;9493;51.884;5.188;2022-11-15T09:49:31;12.30;99.90
18729;DHT22;9493;51.884;5.188;2022-11-15T09:51:58;12.10;99.90
18729;DHT22;9493;51.884;5.188;2022-11-15T09:54:30;12.10;99.90
18729;DHT22;9493;51.884;5.188;2022-11-15T09:57:04;12.10;99.90
18729;DHT22;9493;51.884;5.188;2022-11-15T09:59:51;12.10;99.90
18729;DHT22;9493;51.884;5.188;2022-11-15T10:02:37;12.30;99.90
18729;DHT22;9493;51.884;5.188;2022-11-15T10:05:11;12.40;99.90
18729;DHT22;9493;51.884;5.188;2022-11-15T10:07:46;12.60;99.90
18729;DHT22;9493;51.884;5.188;2022-11-15T10:10:20;12.80;99.90
18729;DHT22;9493;51.884;5.188;2022-11-15T10:12:50;13.00;99.90
18729;DHT22;9493;51.884;5.188;2022-11-15T10:15:20;13.10;99.90
18729;DHT22;9493;51.884;5.188;2022-11-15T10:18:04;12.90;99.90
18729;DHT22;9493;51.884;5.188;2022-11-15T10:20:38;12.90;99.90
18729;DHT22;9493;51.884;5.188;2022-11-15T10:23:13;13.00;99.90
18729;DHT22;9493;51.884;5.188;2022-11-15T10:25:40;13.20;99.90
18729;DHT22;9493;51.884;5.188;2022-11-15T10:28:12;13.30;99.90
18729;DHT22;9493;51.884;5.188;2022-11-15T10:30:42;13.20;99.90
18729;DHT22;9493;51.884;5.188;2022-11-15T10:33:30;13.10;99.90
18729;DHT22;9493;51.884;5.188;2022-11-15T10:36:22;13.10;99.90
18729;DHT22;9493;51.884;5.188;2022-11-15T10:38:56;13.10;99.90
18729;DHT22;9493;51.884;5.188;2022-11-15T10:41:30;13.20;99.90
18729;DHT22;9493;51.884;5.188;2022-11-15T10:44:09;13.30;99.90
18729;DHT22;9493;51.884;5.188;2022-11-15T10:46:41;13.20;99.90
18729;DHT22;9493;51.884;5.188;2022-11-15T10:49:13;13.40;99.90
18729;DHT22;9493;51.884;5.188;2022-11-15T10:51:44;13.40;99.90
18729;DHT22;9493;51.884;5.188;2022-11-15T10:54:12;13.40;99.90
18729;DHT22;9493;51.884;5.188;2022-11-15T10:56:40;13.40;99.90
18729;DHT22;9493;51.884;5.188;2022-11-15T10:59:15;13.60;99.90
18729;DHT22;9493;51.884;5.188;2022-11-15T11:01:48;13.40;99.90
18729;DHT22;9493;51.884;5.188;2022-11-15T11:04:15;13.50;99.90
18729;DHT22;9493;51.884;5.188;2022-11-15T11:06:48;13.50;99.90
18729;DHT22;9493;51.884;5.188;2022-11-15T11:09:27;13.70;99.90
18729;DHT22;9493;51.884;5.188;2022-11-15T11:11:54;13.60;99.90
18729;DHT22;9493;51.884;5.188;2022-11-15T11:14:22;13.50;99.90
18729;DHT22;9493;51.884;5.188;2022-11-15T11:16:55;13.40;99.90
18729;DHT22;9493;51.884;5.188;2022-11-15T11:19:54;13.60;99.90
18729;DHT22;9493;51.884;5.188;2022-11-15T11:22:28;13.60;99.90
18729;DHT22;9493;51.884;5.188;2022-11-15T11:25:21;14.00;99.90
18729;DHT22;9493;51.884;5.188;2022-11-15T11:28:01;14.40;99.90
18729;DHT22;9493;51.884;5.188;2022-11-15T11:30:47;14.40;99.90
18729;DHT22;9493;51.884;5.188;2022-11-15T11:33:19;14.20;99.90
18729;DHT22;9493;51.884;5.188;2022-11-15T11:35:57;14.20;99.90
18729;DHT22;9493;51.884;5.188;2022-11-15T11:38:45;14.30;99.90
18729;DHT22;9493;51.884;5.188;2022-11-15T11:41:24;14.20;99.90
18729;DHT22;9493;51.884;5.188;2022-11-15T11:44:02;14.00;99.90
18729;DHT22;9493;51.884;5.188;2022-11-15T11:46:47;13.80;99.90
18729;DHT22;9493;51.884;5.188;2022-11-15T11:49:22;13.80;99.90
18729;DHT22;9493;51.884;5.188;2022-11-15T11:51:54;13.80;99.90
18729;DHT22;9493;51.884;5.188;2022-11-15T11:54:28;13.60;99.90
18729;DHT22;9493;51.884;5.188;2022-11-15T11:57:00;13.70;99.90
18729;DHT22;9493;51.884;5.188;2022-11-15T11:59:43;13.70;99.90
18729;DHT22;9493;51.884;5.188;2022-11-15T12:02:16;14.00;99.90
18729;DHT22;9493;51.884;5.188;2022-11-15T12:04:48;14.10;99.90
18729;DHT22;9493;51.884;5.188;2022-11-15T12:07:20;14.00;99.90
18729;DHT22;9493;51.884;5.188;2022-11-15T12:09:53;14.00;99.90
18729;DHT22;9493;51.884;5.188;2022-11-15T12:12:27;14.10;99.90
18729;DHT22;9493;51.884;5.188;2022-11-15T12:15:00;14.10;99.90
18729;DHT22;9493;51.884;5.188;2022-11-15T12:17:29;14.30;99.90
18729;DHT22;9493;51.884;5.188;2022-11-15T12:19:59;14.20;99.90
18729;DHT22;9493;51.884;5.188;2022-11-15T12:22:36;14.20;99.90
18729;DHT22;9493;51.884;5.188;2022-11-15T12:25:08;14.20;99.90
18729;DHT22;9493;51.884;5.188;2022-11-15T12:27:42;14.30;99.90
18729;DHT22;9493;51.884;5.188;2022-11-15T12:30:13;14.40;99.90
18729;DHT22;9493;51.884;5.188;2022-11-15T12:32:50;14.50;99.90
18729;DHT22;9493;51.884;5.188;2022-11-15T12:35:25;14.70;99.90
18729;DHT22;9493;51.884;5.188;2022-11-15T12:37:53;14.50;99.90
18729;DHT22;9493;51.884;5.188;2022-11-15T12:40:33;14.40;99.90
18729;DHT22;9493;51.884;5.188;2022-11-15T12:46:12;14.40;99.90
18729;DHT22;9493;51.884;5.188;2022-11-15T12:48:58;14.50;99.90
18729;DHT22;9493;51.884;5.188;2022-11-15T12:54:52;14.40;99.90
18729;DHT22;9493;51.884;5.188;2022-11-15T12:57:37;14.10;99.90
18729;DHT22;9493;51.884;5.188;2022-11-15T13:03:26;14.00;99.90
18729;DHT22;9493;51.884;5.188;2022-11-15T13:06:00;13.90;99.90
18729;DHT22;9493;51.884;5.188;2022-11-15T13:08:45;13.90;99.90
18729;DHT22;9493;51.884;5.188;2022-11-15T13:11:43;13.80;99.90
18729;DHT22;9493;51.884;5.188;2022-11-15T13:14:48;13.60;99.90
18729;DHT22;9493;51.884;5.188;2022-11-15T13:20:29;13.40;99.90
18729;DHT22;9493;51.884;5.188;2022-11-15T13:23:07;13.50;99.90
18729;DHT22;9493;51.884;5.188;2022-11-15T13:28:33;13.30;99.90
18729;DHT22;9493;51.884;5.188;2022-11-15T13:31:13;13.40;99.90
18729;DHT22;9493;51.884;5.188;2022-11-15T13:33:44;13.30;99.90
18729;DHT22;9493;51.884;5.188;2022-11-15T13:36:14;13.30;99.90
18729;DHT22;9493;51.884;5.188;2022-11-15T13:38:42;13.30;99.90
18729;DHT22;9493;51.884;5.188;2022-11-15T13:41:18;13.10;99.90
18729;DHT22;9493;51.884;5.188;2022-11-15T13:43:47;13.20;99.90
18729;DHT22;9493;51.884;5.188;2022-11-15T13:46:17;13.20;99.90
18729;DHT22;9493;51.884;5.188;2022-11-15T13:48:45;13.20;99.90
18729;DHT22;9493;51.884;5.188;2022-11-15T13:51:17;13.10;99.90
18729;DHT22;9493;51.884;5.188;2022-11-15T13:53:47;13.10;99.90
18729;DHT22;9493;51.884;5.188;2022-11-15T13:56:16;13.20;99.90
18729;DHT22;9493;51.884;5.188;2022-11-15T13:58:46;13.20;99.90
18729;DHT22;9493;51.884;5.188;2022-11-15T14:01:16;13.20;99.90
18729;DHT22;9493;51.884;5.188;2022-11-15T14:03:53;13.20;99.90
18729;DHT22;9493;51.884;5.188;2022-11-15T14:06:22;13.30;99.90
18729;DHT22;9493;51.884;5.188;2022-11-15T14:11:55;13.10;99.90
18729;DHT22;9493;51.884;5.188;2022-11-15T14:14:25;13.20;99.90
18729;DHT22;9493;51.884;5.188;2022-11-15T14:16:54;13.10;99.90
18729;DHT22;9493;51.884;5.188;2022-11-15T14:19:35;13.10;99.90
18729;DHT22;9493;51.884;5.188;2022-11-15T14:22:14;13.00;99.90
18729;DHT22;9493;51.884;5.188;2022-11-15T14:24:43;13.10;99.90
18729;DHT22;9493;51.884;5.188;2022-11-15T14:27:22;13.10;99.90
18729;DHT22;9493;51.884;5.188;2022-11-15T14:29:50;13.00;99.90
18729;DHT22;9493;51.884;5.188;2022-11-15T14:32:19;12.90;99.90
18729;DHT22;9493;51.884;5.188;2022-11-15T14:34:47;12.80;99.90
18729;DHT22;9493;51.884;5.188;2022-11-15T14:37:22;12.80;99.90
18729;DHT22;9493;51.884;5.188;2022-11-15T14:39:49;12.80;99.90
18729;DHT22;9493;51.884;5.188;2022-11-15T14:42:17;12.80;99.90
18729;DHT22;9493;51.884;5.188;2022-11-15T14:44:44;12.70;99.90
18729;DHT22;9493;51.884;5.188;2022-11-15T14:47:13;12.70;99.90
18729;DHT22;9493;51.884;5.188;2022-11-15T14:49:40;12.70;99.90
18729;DHT22;9493;51.884;5.188;2022-11-15T14:52:24;12.60;99.90
18729;DHT22;9493;51.884;5.188;2022-11-15T14:54:51;12.50;99.90
18729;DHT22;9493;51.884;5.188;2022-11-15T14:57:18;12.50;99.90
18729;DHT22;9493;51.884;5.188;2022-11-15T14:59:45;12.50;99.90
18729;DHT22;9493;51.884;5.188;2022-11-15T15:02:17;12.50;99.90
18729;DHT22;9493;51.884;5.188;2022-11-15T15:04:45;12.50;99.90
18729;DHT22;9493;51.884;5.188;2022-11-15T15:07:12;12.50;99.90
18729;DHT22;9493;51.884;5.188;2022-11-15T15:09:39;12.50;99.90
18729;DHT22;9493;51.884;5.188;2022-11-15T15:12:13;12.40;99.90
18729;DHT22;9493;51.884;5.188;2022-11-15T15:14:40;12.40;99.90
18729;DHT22;9493;51.884;5.188;2022-11-15T15:17:07;12.40;99.90
18729;DHT22;9493;51.884;5.188;2022-11-15T15:19:35;12.40;99.90
18729;DHT22;9493;51.884;5.188;2022-11-15T15:22:02;12.30;99.90
18729;DHT22;9493;51.884;5.188;2022-11-15T15:24:29;12.30;99.90
18729;DHT22;9493;51.884;5.188;2022-11-15T15:26:55;12.30;99.90
18729;DHT22;9493;51.884;5.188;2022-11-15T15:29:22;12.30;99.90
18729;DHT22;9493;51.884;5.188;2022-11-15T15:31:49;12.30;99.90
18729;DHT22;9493;51.884;5.188;2022-11-15T15:34:15;12.30;99.90
18729;DHT22;9493;51.884;5.188;2022-11-15T15:36:43;12.30;99.90
18729;DHT22;9493;51.884;5.188;2022-11-15T15:39:10;12.30;99.90
18729;DHT22;9493;51.884;5.188;2022-11-15T15:41:37;12.30;99.90
18729;DHT22;9493;51.884;5.188;2022-11-15T15:44:04;12.30;99.90
18729;DHT22;9493;51.884;5.188;2022-11-15T15:46:31;12.30;99.90
18729;DHT22;9493;51.884;5.188;2022-11-15T15:48:58;12.30;99.90
18729;DHT22;9493;51.884;5.188;2022-11-15T15:51:24;12.20;99.90
18729;DHT22;9493;51.884;5.188;2022-11-15T15:53:52;12.30;99.90
18729;DHT22;9493;51.884;5.188;2022-11-15T15:56:22;12.30;99.90
18729;DHT22;9493;51.884;5.188;2022-11-15T15:58:49;12.30;99.90
18729;DHT22;9493;51.884;5.188;2022-11-15T16:01:18;12.30;99.90
18729;DHT22;9493;51.884;5.188;2022-11-15T16:03:45;12.30;99.90
18729;DHT22;9493;51.884;5.188;2022-11-15T16:06:35;12.30;99.90
18729;DHT22;9493;51.884;5.188;2022-11-15T16:09:05;12.30;99.90
18729;DHT22;9493;51.884;5.188;2022-11-15T16:11:32;12.20;99.90
18729;DHT22;9493;51.884;5.188;2022-11-15T16:13:59;12.40;99.90
18729;DHT22;9493;51.884;5.188;2022-11-15T16:16:26;12.30;99.90
18729;DHT22;9493;51.884;5.188;2022-11-15T16:18:52;12.30;99.90
18729;DHT22;9493;51.884;5.188;2022-11-15T16:21:19;12.30;99.90
18729;DHT22;9493;51.884;5.188;2022-11-15T16:23:46;12.20;99.90
18729;DHT22;9493;51.884;5.188;2022-11-15T16:26:20;12.20;99.90
18729;DHT22;9493;51.884;5.188;2022-11-15T16:28:47;12.20;99.90
18729;DHT22;9493;51.884;5.188;2022-11-15T16:31:14;12.20;99.90
18729;DHT22;9493;51.884;5.188;2022-11-15T16:33:44;12.20;99.90
18729;DHT22;9493;51.884;5.188;2022-11-15T16:36:19;12.10;99.90